sensor_id;sensor_type;location;lat;lon;timestamp;P1;durP1;ratioP1;P2;durP2;ratioP2
64637;SDS011;51049;45.046;38.950;2023-03-16T00:00:15;0.98;;;0.95;;
64637;SDS011;51049;45.046;38.950;2023-03-16T00:02:44;2.58;;;2.13;;
64637;SDS011;51049;45.046;38.950;2023-03-16T00:05:11;7.68;;;3.42;;
64637;SDS011;51049;45.046;38.950;2023-03-16T00:07:41;0.68;;;0.68;;
64637;SDS011;51049;45.046;38.950;2023-03-16T00:10:16;1.10;;;1.00;;
64637;SDS011;51049;45.046;38.950;2023-03-16T00:12:50;3.20;;;2.50;;
64637;SDS011;51049;45.046;38.950;2023-03-16T00:15:24;1.23;;;1.13;;
64637;SDS011;51049;45.046;38.950;2023-03-16T00:18:04;2.83;;;2.47;;
64637;SDS011;51049;45.046;38.950;2023-03-16T00:20:33;1.08;;;0.98;;
64637;SDS011;51049;45.046;38.950;2023-03-16T00:22:59;1.90;;;1.77;;
64637;SDS011;51049;45.046;38.950;2023-03-16T00:25:27;2.97;;;1.88;;
64637;SDS011;51049;45.046;38.950;2023-03-16T00:27:54;1.85;;;1.67;;
64637;SDS011;51049;45.046;38.950;2023-03-16T00:30:19;5.07;;;1.90;;
64637;SDS011;51049;45.046;38.950;2023-03-16T00:35:29;9.27;;;4.05;;
64637;SDS011;51049;45.046;38.950;2023-03-16T00:38:02;5.72;;;2.67;;
64637;SDS011;51049;45.046;38.950;2023-03-16T00:40:28;5.78;;;2.50;;
64637;SDS011;51049;45.046;38.950;2023-03-16T00:42:58;5.13;;;2.13;;
64637;SDS011;51049;45.046;38.950;2023-03-16T00:45:26;3.17;;;2.22;;
64637;SDS011;51049;45.046;38.950;2023-03-16T00:48:01;1.35;;;1.23;;
64637;SDS011;51049;45.046;38.950;2023-03-16T00:50:30;3.25;;;2.42;;
64637;SDS011;51049;45.046;38.950;2023-03-16T00:53:03;1.98;;;1.73;;
64637;SDS011;51049;45.046;38.950;2023-03-16T00:55:30;1.98;;;1.77;;
64637;SDS011;51049;45.046;38.950;2023-03-16T00:57:57;7.80;;;3.15;;
64637;SDS011;51049;45.046;38.950;2023-03-16T01:00:24;2.58;;;2.35;;
64637;SDS011;51049;45.046;38.950;2023-03-16T01:02:55;4.07;;;2.30;;
64637;SDS011;51049;45.046;38.950;2023-03-16T01:05:27;2.70;;;1.73;;
64637;SDS011;51049;45.046;38.950;2023-03-16T01:07:53;2.75;;;1.60;;
64637;SDS011;51049;45.046;38.950;2023-03-16T01:10:32;3.20;;;2.33;;
64637;SDS011;51049;45.046;38.950;2023-03-16T01:13:06;3.40;;;2.17;;
64637;SDS011;51049;45.046;38.950;2023-03-16T01:15:35;1.92;;;1.42;;
64637;SDS011;51049;45.046;38.950;2023-03-16T01:18:10;7.10;;;2.17;;
64637;SDS011;51049;45.046;38.950;2023-03-16T01:20:43;3.55;;;2.80;;
64637;SDS011;51049;45.046;38.950;2023-03-16T01:23:18;3.60;;;2.35;;
64637;SDS011;51049;45.046;38.950;2023-03-16T01:25:48;7.78;;;2.55;;
64637;SDS011;51049;45.046;38.950;2023-03-16T01:28:23;5.30;;;2.25;;
64637;SDS011;51049;45.046;38.950;2023-03-16T01:30:55;1.40;;;1.17;;
64637;SDS011;51049;45.046;38.950;2023-03-16T01:33:29;9.40;;;3.00;;
64637;SDS011;51049;45.046;38.950;2023-03-16T01:35:56;2.70;;;2.38;;
64637;SDS011;51049;45.046;38.950;2023-03-16T01:38:38;7.50;;;2.97;;
64637;SDS011;51049;45.046;38.950;2023-03-16T01:41:07;3.38;;;3.08;;
64637;SDS011;51049;45.046;38.950;2023-03-16T01:43:41;1.80;;;1.70;;
64637;SDS011;51049;45.046;38.950;2023-03-16T01:51:42;1.90;;;1.27;;
64637;SDS011;51049;45.046;38.950;2023-03-16T01:59:34;1.58;;;1.48;;
64637;SDS011;51049;45.046;38.950;2023-03-16T02:02:17;3.08;;;2.47;;
64637;SDS011;51049;45.046;38.950;2023-03-16T02:07:15;1.35;;;1.10;;
64637;SDS011;51049;45.046;38.950;2023-03-16T02:09:44;2.67;;;1.35;;
64637;SDS011;51049;45.046;38.950;2023-03-16T02:12:27;1.45;;;0.85;;
64637;SDS011;51049;45.046;38.950;2023-03-16T02:15:06;2.58;;;1.52;;
64637;SDS011;51049;45.046;38.950;2023-03-16T02:17:42;2.15;;;1.88;;
64637;SDS011;51049;45.046;38.950;2023-03-16T02:23:00;2.70;;;1.92;;
64637;SDS011;51049;45.046;38.950;2023-03-16T02:25:30;1.70;;;1.52;;
64637;SDS011;51049;45.046;38.950;2023-03-16T02:30:53;3.03;;;1.05;;
64637;SDS011;51049;45.046;38.950;2023-03-16T02:33:25;1.73;;;1.13;;
64637;SDS011;51049;45.046;38.950;2023-03-16T02:35:55;2.60;;;1.70;;
64637;SDS011;51049;45.046;38.950;2023-03-16T02:38:27;4.22;;;2.35;;
64637;SDS011;51049;45.046;38.950;2023-03-16T02:41:00;5.53;;;2.15;;
64637;SDS011;51049;45.046;38.950;2023-03-16T02:43:47;3.42;;;1.52;;
64637;SDS011;51049;45.046;38.950;2023-03-16T02:46:28;1.90;;;1.67;;
64637;SDS011;51049;45.046;38.950;2023-03-16T02:49:17;9.43;;;2.88;;
64637;SDS011;51049;45.046;38.950;2023-03-16T02:51:49;4.10;;;3.60;;
64637;SDS011;51049;45.046;38.950;2023-03-16T02:54:24;1.63;;;1.45;;
64637;SDS011;51049;45.046;38.950;2023-03-16T02:56:50;1.95;;;1.85;;
64637;SDS011;51049;45.046;38.950;2023-03-16T02:59:16;11.63;;;2.65;;
64637;SDS011;51049;45.046;38.950;2023-03-16T03:01:46;3.67;;;2.10;;
64637;SDS011;51049;45.046;38.950;2023-03-16T03:04:12;3.92;;;2.03;;
64637;SDS011;51049;45.046;38.950;2023-03-16T03:06:38;3.33;;;2.55;;
64637;SDS011;51049;45.046;38.950;2023-03-16T03:09:06;9.80;;;4.03;;
64637;SDS011;51049;45.046;38.950;2023-03-16T03:11:38;3.63;;;2.20;;
64637;SDS011;51049;45.046;38.950;2023-03-16T03:14:07;2.72;;;2.25;;
64637;SDS011;51049;45.046;38.950;2023-03-16T03:16:35;3.53;;;1.83;;
64637;SDS011;51049;45.046;38.950;2023-03-16T03:19:01;4.95;;;2.80;;
64637;SDS011;51049;45.046;38.950;2023-03-16T03:21:37;1.55;;;1.45;;
64637;SDS011;51049;45.046;38.950;2023-03-16T03:24:05;5.00;;;3.05;;
64637;SDS011;51049;45.046;38.950;2023-03-16T03:26:32;5.03;;;3.17;;
64637;SDS011;51049;45.046;38.950;2023-03-16T03:29:02;4.25;;;2.92;;
64637;SDS011;51049;45.046;38.950;2023-03-16T03:31:35;4.97;;;1.63;;
64637;SDS011;51049;45.046;38.950;2023-03-16T03:34:12;7.72;;;2.90;;
64637;SDS011;51049;45.046;38.950;2023-03-16T03:36:43;5.95;;;1.92;;
64637;SDS011;51049;45.046;38.950;2023-03-16T03:39:13;2.30;;;1.80;;
64637;SDS011;51049;45.046;38.950;2023-03-16T03:41:43;4.35;;;2.92;;
64637;SDS011;51049;45.046;38.950;2023-03-16T03:44:10;4.07;;;2.67;;
64637;SDS011;51049;45.046;38.950;2023-03-16T03:46:39;9.50;;;3.72;;
64637;SDS011;51049;45.046;38.950;2023-03-16T03:49:05;2.47;;;2.03;;
64637;SDS011;51049;45.046;38.950;2023-03-16T03:51:33;2.28;;;1.35;;
64637;SDS011;51049;45.046;38.950;2023-03-16T03:54:03;4.22;;;2.90;;
64637;SDS011;51049;45.046;38.950;2023-03-16T03:56:46;6.95;;;1.63;;
64637;SDS011;51049;45.046;38.950;2023-03-16T03:59:14;1.27;;;1.25;;
64637;SDS011;51049;45.046;38.950;2023-03-16T04:02:10;1.65;;;1.55;;
64637;SDS011;51049;45.046;38.950;2023-03-16T04:04:45;3.85;;;3.17;;
64637;SDS011;51049;45.046;38.950;2023-03-16T04:07:34;2.40;;;1.50;;
64637;SDS011;51049;45.046;38.950;2023-03-16T04:10:04;4.35;;;3.22;;
64637;SDS011;51049;45.046;38.950;2023-03-16T04:15:14;4.75;;;2.00;;
64637;SDS011;51049;45.046;38.950;2023-03-16T04:18:14;5.18;;;2.42;;
64637;SDS011;51049;45.046;38.950;2023-03-16T04:20:52;2.72;;;2.47;;
64637;SDS011;51049;45.046;38.950;2023-03-16T04:23:23;3.70;;;2.50;;
64637;SDS011;51049;45.046;38.950;2023-03-16T04:26:01;6.82;;;3.50;;
64637;SDS011;51049;45.046;38.950;2023-03-16T04:28:34;2.50;;;1.85;;
64637;SDS011;51049;45.046;38.950;2023-03-16T04:34:31;4.75;;;2.67;;
64637;SDS011;51049;45.046;38.950;2023-03-16T04:37:07;6.43;;;3.60;;
64637;SDS011;51049;45.046;38.950;2023-03-16T04:39:49;4.03;;;2.53;;
64637;SDS011;51049;45.046;38.950;2023-03-16T04:42:34;2.88;;;2.67;;
64637;SDS011;51049;45.046;38.950;2023-03-16T04:45:12;5.88;;;3.53;;
64637;SDS011;51049;45.046;38.950;2023-03-16T04:47:50;2.50;;;1.57;;
64637;SDS011;51049;45.046;38.950;2023-03-16T04:50:16;4.55;;;2.50;;
64637;SDS011;51049;45.046;38.950;2023-03-16T04:52:47;3.85;;;2.65;;
64637;SDS011;51049;45.046;38.950;2023-03-16T04:57:57;0.98;;;0.77;;
64637;SDS011;51049;45.046;38.950;2023-03-16T05:00:28;31.45;;;4.00;;
64637;SDS011;51049;45.046;38.950;2023-03-16T05:03:26;3.60;;;2.03;;
64637;SDS011;51049;45.046;38.950;2023-03-16T05:06:10;9.65;;;1.90;;
64637;SDS011;51049;45.046;38.950;2023-03-16T05:09:07;3.97;;;2.50;;
64637;SDS011;51049;45.046;38.950;2023-03-16T05:11:38;4.72;;;2.88;;
64637;SDS011;51049;45.046;38.950;2023-03-16T05:14:16;5.88;;;2.70;;
64637;SDS011;51049;45.046;38.950;2023-03-16T05:21:12;16.58;;;3.30;;
64637;SDS011;51049;45.046;38.950;2023-03-16T05:23:52;6.05;;;2.85;;
64637;SDS011;51049;45.046;38.950;2023-03-16T05:26:18;9.75;;;3.30;;
64637;SDS011;51049;45.046;38.950;2023-03-16T05:28:45;23.17;;;3.80;;
64637;SDS011;51049;45.046;38.950;2023-03-16T05:31:15;6.53;;;4.10;;
64637;SDS011;51049;45.046;38.950;2023-03-16T05:33:46;20.23;;;4.93;;
64637;SDS011;51049;45.046;38.950;2023-03-16T05:36:16;4.32;;;3.13;;
64637;SDS011;51049;45.046;38.950;2023-03-16T05:38:45;5.05;;;2.78;;
64637;SDS011;51049;45.046;38.950;2023-03-16T05:41:42;7.13;;;4.13;;
64637;SDS011;51049;45.046;38.950;2023-03-16T05:44:38;11.27;;;3.70;;
64637;SDS011;51049;45.046;38.950;2023-03-16T05:47:34;6.63;;;4.32;;
64637;SDS011;51049;45.046;38.950;2023-03-16T05:50:30;15.32;;;4.22;;
64637;SDS011;51049;45.046;38.950;2023-03-16T05:53:28;3.35;;;3.05;;
64637;SDS011;51049;45.046;38.950;2023-03-16T05:56:15;5.45;;;3.80;;
64637;SDS011;51049;45.046;38.950;2023-03-16T05:58:43;7.80;;;4.25;;
64637;SDS011;51049;45.046;38.950;2023-03-16T06:01:23;12.52;;;3.17;;
64637;SDS011;51049;45.046;38.950;2023-03-16T06:06:22;6.57;;;4.20;;
64637;SDS011;51049;45.046;38.950;2023-03-16T06:08:55;3.22;;;2.28;;
64637;SDS011;51049;45.046;38.950;2023-03-16T06:11:23;9.57;;;3.60;;
64637;SDS011;51049;45.046;38.950;2023-03-16T06:13:51;7.50;;;4.65;;
64637;SDS011;51049;45.046;38.950;2023-03-16T06:16:22;5.55;;;3.25;;
64637;SDS011;51049;45.046;38.950;2023-03-16T06:18:52;6.72;;;4.03;;
64637;SDS011;51049;45.046;38.950;2023-03-16T06:21:43;6.65;;;3.63;;
64637;SDS011;51049;45.046;38.950;2023-03-16T06:28:19;10.95;;;6.55;;
64637;SDS011;51049;45.046;38.950;2023-03-16T06:30:51;5.65;;;4.30;;
64637;SDS011;51049;45.046;38.950;2023-03-16T06:33:32;8.65;;;3.20;;
64637;SDS011;51049;45.046;38.950;2023-03-16T06:36:17;9.68;;;4.47;;
64637;SDS011;51049;45.046;38.950;2023-03-16T06:38:55;8.35;;;4.75;;
64637;SDS011;51049;45.046;38.950;2023-03-16T06:41:37;8.63;;;3.20;;
64637;SDS011;51049;45.046;38.950;2023-03-16T06:44:04;9.93;;;5.28;;
64637;SDS011;51049;45.046;38.950;2023-03-16T06:46:36;9.52;;;4.25;;
64637;SDS011;51049;45.046;38.950;2023-03-16T06:49:03;6.78;;;4.25;;
64637;SDS011;51049;45.046;38.950;2023-03-16T06:51:30;12.02;;;4.53;;
64637;SDS011;51049;45.046;38.950;2023-03-16T06:54:02;15.68;;;4.88;;
64637;SDS011;51049;45.046;38.950;2023-03-16T06:56:38;8.88;;;4.60;;
64637;SDS011;51049;45.046;38.950;2023-03-16T06:59:16;12.07;;;5.55;;
64637;SDS011;51049;45.046;38.950;2023-03-16T07:02:00;13.23;;;4.78;;
64637;SDS011;51049;45.046;38.950;2023-03-16T07:04:56;13.07;;;6.72;;
64637;SDS011;51049;45.046;38.950;2023-03-16T07:08:06;10.07;;;4.45;;
64637;SDS011;51049;45.046;38.950;2023-03-16T07:10:59;8.60;;;4.63;;
64637;SDS011;51049;45.046;38.950;2023-03-16T07:13:28;7.05;;;4.18;;
64637;SDS011;51049;45.046;38.950;2023-03-16T07:19:49;11.10;;;5.65;;
64637;SDS011;51049;45.046;38.950;2023-03-16T07:23:18;8.75;;;4.80;;
64637;SDS011;51049;45.046;38.950;2023-03-16T07:26:48;8.00;;;4.80;;
64637;SDS011;51049;45.046;38.950;2023-03-16T07:29:40;10.80;;;4.90;;
64637;SDS011;51049;45.046;38.950;2023-03-16T07:33:15;16.42;;;6.18;;
64637;SDS011;51049;45.046;38.950;2023-03-16T07:36:42;8.93;;;4.78;;
64637;SDS011;51049;45.046;38.950;2023-03-16T07:39:21;8.43;;;5.32;;
64637;SDS011;51049;45.046;38.950;2023-03-16T07:42:15;12.75;;;5.80;;
64637;SDS011;51049;45.046;38.950;2023-03-16T07:45:02;9.98;;;5.15;;
64637;SDS011;51049;45.046;38.950;2023-03-16T07:47:34;17.40;;;5.40;;
64637;SDS011;51049;45.046;38.950;2023-03-16T07:50:29;28.65;;;6.72;;
64637;SDS011;51049;45.046;38.950;2023-03-16T07:53:18;8.35;;;3.97;;
64637;SDS011;51049;45.046;38.950;2023-03-16T07:55:49;13.48;;;7.40;;
64637;SDS011;51049;45.046;38.950;2023-03-16T07:58:26;9.35;;;5.38;;
64637;SDS011;51049;45.046;38.950;2023-03-16T08:00:58;12.77;;;4.82;;
64637;SDS011;51049;45.046;38.950;2023-03-16T08:03:29;18.73;;;7.15;;
64637;SDS011;51049;45.046;38.950;2023-03-16T08:52:56;9.82;;;5.38;;
64637;SDS011;51049;45.046;38.950;2023-03-16T08:55:33;8.27;;;5.32;;
64637;SDS011;51049;45.046;38.950;2023-03-16T09:14:19;12.23;;;4.90;;
64637;SDS011;51049;45.046;38.950;2023-03-16T09:18:08;6.55;;;4.88;;
64637;SDS011;51049;45.046;38.950;2023-03-16T09:56:42;14.63;;;5.40;;
64637;SDS011;51049;45.046;38.950;2023-03-16T10:00:28;10.10;;;4.07;;
64637;SDS011;51049;45.046;38.950;2023-03-16T10:06:00;10.03;;;5.27;;
64637;SDS011;51049;45.046;38.950;2023-03-16T10:23:43;12.38;;;5.65;;
64637;SDS011;51049;45.046;38.950;2023-03-16T10:26:36;11.57;;;4.35;;
64637;SDS011;51049;45.046;38.950;2023-03-16T10:29:31;9.25;;;4.53;;
64637;SDS011;51049;45.046;38.950;2023-03-16T10:34:52;10.45;;;5.18;;
64637;SDS011;51049;45.046;38.950;2023-03-16T10:37:37;15.32;;;5.55;;
64637;SDS011;51049;45.046;38.950;2023-03-16T10:43:49;7.85;;;4.30;;
64637;SDS011;51049;45.046;38.950;2023-03-16T10:46:34;10.57;;;5.68;;
64637;SDS011;51049;45.046;38.950;2023-03-16T10:49:23;9.73;;;4.38;;
64637;SDS011;51049;45.046;38.950;2023-03-16T10:52:32;9.52;;;4.22;;
64637;SDS011;51049;45.046;38.950;2023-03-16T11:01:23;15.43;;;5.78;;
64637;SDS011;51049;45.046;38.950;2023-03-16T11:12:39;14.30;;;4.95;;
64637;SDS011;51049;45.046;38.950;2023-03-16T11:18:37;11.38;;;4.10;;
64637;SDS011;51049;45.046;38.950;2023-03-16T11:50:34;10.20;;;4.40;;
64637;SDS011;51049;45.046;38.950;2023-03-16T11:56:32;9.88;;;4.30;;
64637;SDS011;51049;45.046;38.950;2023-03-16T12:02:52;16.10;;;4.88;;
64637;SDS011;51049;45.046;38.950;2023-03-16T12:05:45;13.15;;;5.45;;
64637;SDS011;51049;45.046;38.950;2023-03-16T12:08:26;9.30;;;5.15;;
64637;SDS011;51049;45.046;38.950;2023-03-16T12:28:30;8.80;;;4.47;;
64637;SDS011;51049;45.046;38.950;2023-03-16T12:34:24;7.85;;;3.75;;
64637;SDS011;51049;45.046;38.950;2023-03-16T12:37:12;9.55;;;4.30;;
64637;SDS011;51049;45.046;38.950;2023-03-16T12:40:02;10.43;;;3.73;;
64637;SDS011;51049;45.046;38.950;2023-03-16T12:43:26;6.38;;;3.40;;
64637;SDS011;51049;45.046;38.950;2023-03-16T12:49:36;9.07;;;4.20;;
64637;SDS011;51049;45.046;38.950;2023-03-16T12:52:15;12.20;;;4.47;;
64637;SDS011;51049;45.046;38.950;2023-03-16T12:54:51;11.23;;;3.88;;
64637;SDS011;51049;45.046;38.950;2023-03-16T12:57:21;7.80;;;3.15;;
64637;SDS011;51049;45.046;38.950;2023-03-16T13:00:17;6.53;;;3.17;;
64637;SDS011;51049;45.046;38.950;2023-03-16T13:02:55;12.57;;;4.70;;
64637;SDS011;51049;45.046;38.950;2023-03-16T13:05:36;10.57;;;4.72;;
64637;SDS011;51049;45.046;38.950;2023-03-16T13:08:16;8.48;;;4.18;;
64637;SDS011;51049;45.046;38.950;2023-03-16T13:14:03;22.98;;;6.10;;
64637;SDS011;51049;45.046;38.950;2023-03-16T13:16:44;9.88;;;4.05;;
64637;SDS011;51049;45.046;38.950;2023-03-16T13:22:18;7.65;;;4.28;;
64637;SDS011;51049;45.046;38.950;2023-03-16T13:24:53;18.27;;;5.10;;
64637;SDS011;51049;45.046;38.950;2023-03-16T13:38:53;9.32;;;2.92;;
64637;SDS011;51049;45.046;38.950;2023-03-16T13:44:55;6.22;;;3.97;;
64637;SDS011;51049;45.046;38.950;2023-03-16T13:47:35;10.48;;;3.22;;
64637;SDS011;51049;45.046;38.950;2023-03-16T13:50:01;8.38;;;3.30;;
64637;SDS011;51049;45.046;38.950;2023-03-16T13:52:32;7.45;;;3.63;;
64637;SDS011;51049;45.046;38.950;2023-03-16T13:55:05;8.45;;;3.67;;
64637;SDS011;51049;45.046;38.950;2023-03-16T13:57:49;8.45;;;4.22;;
64637;SDS011;51049;45.046;38.950;2023-03-16T14:02:51;17.60;;;3.92;;
64637;SDS011;51049;45.046;38.950;2023-03-16T14:05:23;6.57;;;3.35;;
64637;SDS011;51049;45.046;38.950;2023-03-16T14:07:52;7.63;;;4.93;;
64637;SDS011;51049;45.046;38.950;2023-03-16T14:10:20;9.45;;;3.63;;
64637;SDS011;51049;45.046;38.950;2023-03-16T14:12:51;7.60;;;3.30;;
64637;SDS011;51049;45.046;38.950;2023-03-16T14:15:18;11.30;;;4.55;;
64637;SDS011;51049;45.046;38.950;2023-03-16T14:17:46;14.93;;;5.05;;
64637;SDS011;51049;45.046;38.950;2023-03-16T14:20:30;9.88;;;3.83;;
64637;SDS011;51049;45.046;38.950;2023-03-16T14:22:59;13.05;;;3.85;;
64637;SDS011;51049;45.046;38.950;2023-03-16T14:25:25;11.45;;;3.95;;
64637;SDS011;51049;45.046;38.950;2023-03-16T14:27:58;5.95;;;3.50;;
64637;SDS011;51049;45.046;38.950;2023-03-16T14:30:27;9.65;;;4.50;;
64637;SDS011;51049;45.046;38.950;2023-03-16T14:35:32;10.85;;;4.45;;
64637;SDS011;51049;45.046;38.950;2023-03-16T14:41:39;9.40;;;5.43;;
64637;SDS011;51049;45.046;38.950;2023-03-16T14:43:59;9.82;;;4.90;;
64637;SDS011;51049;45.046;38.950;2023-03-16T14:46:36;12.77;;;4.35;;
64637;SDS011;51049;45.046;38.950;2023-03-16T14:53:00;18.38;;;5.72;;
64637;SDS011;51049;45.046;38.950;2023-03-16T14:56:29;8.10;;;4.15;;
64637;SDS011;51049;45.046;38.950;2023-03-16T14:59:12;7.88;;;4.07;;
64637;SDS011;51049;45.046;38.950;2023-03-16T15:05:52;6.00;;;3.45;;
64637;SDS011;51049;45.046;38.950;2023-03-16T15:08:23;5.28;;;3.50;;
64637;SDS011;51049;45.046;38.950;2023-03-16T15:21:50;10.02;;;4.25;;
64637;SDS011;51049;45.046;38.950;2023-03-16T15:34:05;12.40;;;3.17;;
64637;SDS011;51049;45.046;38.950;2023-03-16T15:36:44;10.10;;;5.10;;
64637;SDS011;51049;45.046;38.950;2023-03-16T15:39:19;8.40;;;4.78;;
64637;SDS011;51049;45.046;38.950;2023-03-16T15:42:32;7.70;;;3.83;;
64637;SDS011;51049;45.046;38.950;2023-03-16T15:49:23;9.48;;;3.97;;
64637;SDS011;51049;45.046;38.950;2023-03-16T15:51:49;9.68;;;3.80;;
64637;SDS011;51049;45.046;38.950;2023-03-16T15:54:16;17.92;;;4.57;;
64637;SDS011;51049;45.046;38.950;2023-03-16T15:56:42;8.50;;;4.60;;
64637;SDS011;51049;45.046;38.950;2023-03-16T15:59:13;7.78;;;5.30;;
64637;SDS011;51049;45.046;38.950;2023-03-16T16:01:50;9.30;;;4.05;;
64637;SDS011;51049;45.046;38.950;2023-03-16T16:04:18;5.72;;;3.38;;
64637;SDS011;51049;45.046;38.950;2023-03-16T16:06:46;10.63;;;3.80;;
64637;SDS011;51049;45.046;38.950;2023-03-16T16:09:17;8.63;;;4.32;;
64637;SDS011;51049;45.046;38.950;2023-03-16T16:11:56;7.68;;;4.10;;
64637;SDS011;51049;45.046;38.950;2023-03-16T16:14:41;8.05;;;4.90;;
64637;SDS011;51049;45.046;38.950;2023-03-16T16:22:58;8.55;;;3.47;;
64637;SDS011;51049;45.046;38.950;2023-03-16T16:25:31;12.65;;;6.53;;
64637;SDS011;51049;45.046;38.950;2023-03-16T16:31:57;10.30;;;5.88;;
64637;SDS011;51049;45.046;38.950;2023-03-16T16:34:25;8.52;;;4.15;;
64637;SDS011;51049;45.046;38.950;2023-03-16T16:36:55;11.60;;;4.30;;
64637;SDS011;51049;45.046;38.950;2023-03-16T16:39:25;10.27;;;5.55;;
64637;SDS011;51049;45.046;38.950;2023-03-16T16:41:52;8.77;;;4.85;;
64637;SDS011;51049;45.046;38.950;2023-03-16T16:45:18;22.80;;;6.38;;
64637;SDS011;51049;45.046;38.950;2023-03-16T16:47:53;10.75;;;5.57;;
64637;SDS011;51049;45.046;38.950;2023-03-16T16:51:22;7.53;;;4.22;;
64637;SDS011;51049;45.046;38.950;2023-03-16T16:53:51;7.45;;;3.88;;
64637;SDS011;51049;45.046;38.950;2023-03-16T16:56:26;6.78;;;3.33;;
64637;SDS011;51049;45.046;38.950;2023-03-16T17:02:44;9.20;;;5.15;;
64637;SDS011;51049;45.046;38.950;2023-03-16T17:09:03;11.40;;;4.25;;
64637;SDS011;51049;45.046;38.950;2023-03-16T17:11:30;9.95;;;4.80;;
64637;SDS011;51049;45.046;38.950;2023-03-16T17:14:04;7.68;;;4.57;;
64637;SDS011;51049;45.046;38.950;2023-03-16T17:16:42;18.75;;;6.20;;
64637;SDS011;51049;45.046;38.950;2023-03-16T17:25:50;16.13;;;4.40;;
64637;SDS011;51049;45.046;38.950;2023-03-16T17:28:27;10.43;;;4.90;;
64637;SDS011;51049;45.046;38.950;2023-03-16T17:31:06;14.25;;;4.57;;
64637;SDS011;51049;45.046;38.950;2023-03-16T17:37:05;11.85;;;5.38;;
64637;SDS011;51049;45.046;38.950;2023-03-16T17:39:45;10.85;;;4.15;;
64637;SDS011;51049;45.046;38.950;2023-03-16T17:42:18;7.80;;;4.13;;
64637;SDS011;51049;45.046;38.950;2023-03-16T17:48:23;7.40;;;5.45;;
64637;SDS011;51049;45.046;38.950;2023-03-16T17:50:55;7.85;;;4.05;;
64637;SDS011;51049;45.046;38.950;2023-03-16T17:53:24;9.00;;;4.55;;
64637;SDS011;51049;45.046;38.950;2023-03-16T17:55:53;14.90;;;6.05;;
64637;SDS011;51049;45.046;38.950;2023-03-16T17:58:21;14.77;;;5.88;;
64637;SDS011;51049;45.046;38.950;2023-03-16T18:00:50;10.90;;;5.65;;
64637;SDS011;51049;45.046;38.950;2023-03-16T18:03:18;11.93;;;6.63;;
64637;SDS011;51049;45.046;38.950;2023-03-16T18:05:49;8.57;;;5.72;;
64637;SDS011;51049;45.046;38.950;2023-03-16T18:08:46;17.65;;;6.75;;
64637;SDS011;51049;45.046;38.950;2023-03-16T18:11:34;13.20;;;5.93;;
64637;SDS011;51049;45.046;38.950;2023-03-16T18:14:27;12.25;;;7.13;;
64637;SDS011;51049;45.046;38.950;2023-03-16T18:17:24;12.18;;;5.05;;
64637;SDS011;51049;45.046;38.950;2023-03-16T18:22:59;11.75;;;6.43;;
64637;SDS011;51049;45.046;38.950;2023-03-16T18:25:48;12.00;;;4.90;;
64637;SDS011;51049;45.046;38.950;2023-03-16T18:28:17;16.98;;;6.57;;
64637;SDS011;51049;45.046;38.950;2023-03-16T18:33:22;13.98;;;6.07;;
64637;SDS011;51049;45.046;38.950;2023-03-16T18:36:05;16.58;;;7.22;;
64637;SDS011;51049;45.046;38.950;2023-03-16T18:38:41;14.07;;;5.15;;
64637;SDS011;51049;45.046;38.950;2023-03-16T18:41:28;11.68;;;5.78;;
64637;SDS011;51049;45.046;38.950;2023-03-16T18:44:03;13.07;;;7.32;;
64637;SDS011;51049;45.046;38.950;2023-03-16T18:46:45;6.13;;;4.68;;
64637;SDS011;51049;45.046;38.950;2023-03-16T18:49:23;11.18;;;6.38;;
64637;SDS011;51049;45.046;38.950;2023-03-16T18:52:11;17.27;;;6.70;;
64637;SDS011;51049;45.046;38.950;2023-03-16T18:54:47;9.00;;;5.53;;
64637;SDS011;51049;45.046;38.950;2023-03-16T18:57:50;11.82;;;6.28;;
64637;SDS011;51049;45.046;38.950;2023-03-16T19:00:45;10.23;;;7.28;;
64637;SDS011;51049;45.046;38.950;2023-03-16T19:03:26;14.15;;;6.05;;
64637;SDS011;51049;45.046;38.950;2023-03-16T19:05:56;15.05;;;6.60;;
64637;SDS011;51049;45.046;38.950;2023-03-16T19:08:42;8.07;;;6.10;;
64637;SDS011;51049;45.046;38.950;2023-03-16T19:11:08;12.60;;;5.00;;
64637;SDS011;51049;45.046;38.950;2023-03-16T19:13:35;11.20;;;5.28;;
64637;SDS011;51049;45.046;38.950;2023-03-16T19:16:01;6.97;;;4.63;;
64637;SDS011;51049;45.046;38.950;2023-03-16T19:18:28;15.07;;;6.13;;
64637;SDS011;51049;45.046;38.950;2023-03-16T19:21:05;14.00;;;5.90;;
64637;SDS011;51049;45.046;38.950;2023-03-16T19:23:34;17.40;;;5.60;;
64637;SDS011;51049;45.046;38.950;2023-03-16T19:26:07;11.25;;;5.95;;
64637;SDS011;51049;45.046;38.950;2023-03-16T19:28:34;14.63;;;5.28;;
64637;SDS011;51049;45.046;38.950;2023-03-16T19:31:17;17.08;;;7.28;;
64637;SDS011;51049;45.046;38.950;2023-03-16T19:33:46;7.20;;;4.50;;
64637;SDS011;51049;45.046;38.950;2023-03-16T19:38:59;10.52;;;5.28;;
64637;SDS011;51049;45.046;38.950;2023-03-16T19:41:27;8.50;;;5.15;;
64637;SDS011;51049;45.046;38.950;2023-03-16T19:43:55;16.27;;;6.95;;
64637;SDS011;51049;45.046;38.950;2023-03-16T19:46:28;11.52;;;6.28;;
64637;SDS011;51049;45.046;38.950;2023-03-16T19:48:58;20.35;;;7.88;;
64637;SDS011;51049;45.046;38.950;2023-03-16T19:51:52;9.90;;;5.13;;
64637;SDS011;51049;45.046;38.950;2023-03-16T19:54:31;12.85;;;5.53;;
64637;SDS011;51049;45.046;38.950;2023-03-16T19:57:11;7.10;;;4.22;;
64637;SDS011;51049;45.046;38.950;2023-03-16T19:59:40;6.80;;;4.72;;
64637;SDS011;51049;45.046;38.950;2023-03-16T20:05:31;10.32;;;5.25;;
64637;SDS011;51049;45.046;38.950;2023-03-16T20:08:35;12.65;;;5.50;;
64637;SDS011;51049;45.046;38.950;2023-03-16T20:11:10;13.13;;;7.10;;
64637;SDS011;51049;45.046;38.950;2023-03-16T20:14:04;9.73;;;4.70;;
64637;SDS011;51049;45.046;38.950;2023-03-16T20:17:08;6.65;;;3.20;;
64637;SDS011;51049;45.046;38.950;2023-03-16T20:20:04;6.68;;;3.92;;
64637;SDS011;51049;45.046;38.950;2023-03-16T20:22:50;15.00;;;3.92;;
64637;SDS011;51049;45.046;38.950;2023-03-16T20:25:21;10.65;;;6.28;;
64637;SDS011;51049;45.046;38.950;2023-03-16T20:27:58;8.45;;;5.13;;
64637;SDS011;51049;45.046;38.950;2023-03-16T20:30:38;7.15;;;3.85;;
64637;SDS011;51049;45.046;38.950;2023-03-16T20:33:18;12.68;;;4.82;;
64637;SDS011;51049;45.046;38.950;2023-03-16T20:35:51;6.43;;;4.18;;
64637;SDS011;51049;45.046;38.950;2023-03-16T20:38:21;6.72;;;3.28;;
64637;SDS011;51049;45.046;38.950;2023-03-16T20:40:52;15.27;;;6.00;;
64637;SDS011;51049;45.046;38.950;2023-03-16T20:43:29;9.60;;;4.97;;
64637;SDS011;51049;45.046;38.950;2023-03-16T20:48:54;6.95;;;4.50;;
64637;SDS011;51049;45.046;38.950;2023-03-16T20:51:27;10.38;;;5.10;;
64637;SDS011;51049;45.046;38.950;2023-03-16T20:53:56;8.23;;;3.72;;
64637;SDS011;51049;45.046;38.950;2023-03-16T20:56:30;8.82;;;3.95;;
64637;SDS011;51049;45.046;38.950;2023-03-16T20:59:10;8.00;;;5.90;;
64637;SDS011;51049;45.046;38.950;2023-03-16T21:01:49;5.32;;;4.40;;
64637;SDS011;51049;45.046;38.950;2023-03-16T21:04:29;22.90;;;7.25;;
64637;SDS011;51049;45.046;38.950;2023-03-16T21:07:11;4.22;;;3.20;;
64637;SDS011;51049;45.046;38.950;2023-03-16T21:13:30;11.98;;;5.25;;
64637;SDS011;51049;45.046;38.950;2023-03-16T21:15:58;7.43;;;4.28;;
64637;SDS011;51049;45.046;38.950;2023-03-16T21:18:25;5.43;;;3.60;;
64637;SDS011;51049;45.046;38.950;2023-03-16T21:20:52;4.90;;;2.72;;
64637;SDS011;51049;45.046;38.950;2023-03-16T21:23:21;3.92;;;3.00;;
64637;SDS011;51049;45.046;38.950;2023-03-16T21:26:00;9.90;;;4.20;;
64637;SDS011;51049;45.046;38.950;2023-03-16T21:28:28;8.27;;;3.72;;